Time;durP1;ratioP1;P1;durP2;ratioP2;P2;SDS_P1;SDS_P2;PMS_P1;PMS_P2;Temp;Humidity;BMP_temperature;BMP_pressure;BME280_temperature;BME280_humidity;BME280_pressure;Samples;Min_cycle;Max_cycle;Signal;HPM_P1;HPM_P2
2024/03/29 00:00:46;;;;;;;4.30;3.60;;;;;;;10.70;50.10;98846.33;110888;1258;23546;-71
2024/03/29 00:03:35;;;;;;;4.90;3.60;;;;;;;10.66;50.21;98854.36;110424;1258;21999;-73
2024/03/29 00:06:03;;;;;;;6.80;3.40;;;;;;;10.59;50.30;98860.41;110957;1258;23679;-70
2024/03/29 00:08:33;;;;;;;5.80;3.40;;;;;;;10.54;50.52;98872.30;110688;1258;23646;-73
2024/03/29 00:11:02;;;;;;;6.60;2.90;;;;;;;10.50;50.68;98879.41;110998;1258;21960;-71
2024/03/29 00:13:32;;;;;;;4.80;3.00;;;;;;;10.45;50.67;98887.79;111075;1248;23657;-72
2024/03/29 00:16:01;;;;;;;4.40;2.70;;;;;;;10.40;50.79;98894.52;112088;1258;21969;-71
2024/03/29 00:18:29;;;;;;;3.70;2.60;;;;;;;10.35;50.83;98900.27;111938;1258;23586;-71
2024/03/29 00:20:58;;;;;;;4.50;2.60;;;;;;;10.32;51.04;98904.27;110814;1258;22183;-71
2024/03/29 00:23:28;;;;;;;3.10;2.40;;;;;;;10.30;51.39;98914.35;111059;1254;21962;-70
2024/03/29 00:25:58;;;;;;;4.60;2.70;;;;;;;10.24;51.42;98919.06;111040;1258;22049;-71
2024/03/29 00:28:27;;;;;;;2.80;2.30;;;;;;;10.18;51.15;98924.56;110756;1258;21969;-70
2024/03/29 00:30:55;;;;;;;5.20;2.50;;;;;;;10.11;51.43;98930.83;111060;1258;21962;-71
2024/03/29 00:33:24;;;;;;;2.90;2.10;;;;;;;10.06;51.66;98935.36;111023;1252;22006;-71
2024/03/29 00:35:53;;;;;;;2.80;1.70;;;;;;;10.01;51.71;98942.27;110992;1258;22028;-70
2024/03/29 00:38:22;;;;;;;4.10;2.40;;;;;;;9.97;51.83;98950.70;110720;1258;21952;-72
2024/03/29 00:40:50;;;;;;;5.80;3.00;;;;;;;9.94;52.06;98955.67;110999;1258;23112;-73
2024/03/29 00:43:19;;;;;;;4.70;2.60;;;;;;;9.93;52.09;98957.95;111004;1258;21976;-72
2024/03/29 00:45:47;;;;;;;4.40;2.90;;;;;;;9.90;52.24;98958.85;110965;1258;21961;-72
2024/03/29 00:48:19;;;;;;;4.80;2.80;;;;;;;9.86;52.30;98962.23;111007;1258;21962;-72
2024/03/29 00:50:48;;;;;;;6.40;3.40;;;;;;;9.79;52.23;98962.84;111029;1258;23017;-74
2024/03/29 00:53:16;;;;;;;3.90;2.60;;;;;;;9.74;52.32;98972.61;111028;1252;22942;-74
2024/03/29 00:55:45;;;;;;;6.30;3.40;;;;;;;9.70;52.39;98978.21;110615;1258;21976;-73
2024/03/29 00:58:14;;;;;;;5.60;3.80;;;;;;;9.65;52.50;98980.96;110980;1258;23649;-73
2024/03/29 01:00:42;;;;;;;4.70;4.00;;;;;;;9.61;52.63;98991.36;110995;1258;21970;-72
2024/03/29 01:03:11;;;;;;;6.10;3.80;;;;;;;9.57;52.64;98993.79;110984;1258;22565;-72
2024/03/29 01:05:39;;;;;;;4.90;3.40;;;;;;;9.55;52.60;99001.77;110988;1258;23975;-72
2024/03/29 01:08:09;;;;;;;6.80;2.80;;;;;;;9.50;52.68;99010.59;111130;1258;21956;-72
2024/03/29 01:10:38;;;;;;;6.80;3.60;;;;;;;9.44;52.62;99018.95;111000;1258;21965;-72
2024/03/29 01:13:06;;;;;;;4.30;2.80;;;;;;;9.39;52.77;99021.88;111030;1258;21982;-73
2024/03/29 01:15:35;;;;;;;3.60;2.50;;;;;;;9.34;53.09;99023.89;111009;1258;21958;-72
2024/03/29 01:18:04;;;;;;;7.60;2.80;;;;;;;9.33;53.16;99035.27;110715;1258;21973;-73
2024/03/29 01:20:32;;;;;;;3.70;2.80;;;;;;;9.30;53.26;99044.09;111082;1258;22303;-72
2024/03/29 01:23:01;;;;;;;3.70;2.50;;;;;;;9.29;53.27;99046.48;111008;1258;24299;-72
2024/03/29 01:25:29;;;;;;;3.50;2.40;;;;;;;9.27;53.19;99052.05;111032;1258;23420;-72
2024/03/29 01:27:58;;;;;;;3.00;2.50;;;;;;;9.26;53.39;99051.16;110968;1258;21992;-71
2024/03/29 01:30:27;;;;;;;2.80;2.10;;;;;;;9.25;53.27;99051.08;110696;1258;21968;-73
2024/03/29 01:32:56;;;;;;;3.10;2.50;;;;;;;9.23;53.22;99061.22;110724;1254;23688;-72
2024/03/29 01:35:24;;;;;;;4.70;2.50;;;;;;;9.21;53.14;99071.41;110758;1258;21962;-71
2024/03/29 01:37:54;;;;;;;4.90;2.00;;;;;;;9.17;53.26;99078.92;111063;1258;22021;-71
2024/03/29 01:40:23;;;;;;;5.80;2.60;;;;;;;9.13;53.28;99083.65;110719;1258;21968;-71
2024/03/29 01:42:55;;;;;;;3.90;2.60;;;;;;;9.11;53.49;99091.77;110752;1258;21951;-71
2024/03/29 01:45:23;;;;;;;;;;;;;;;9.09;53.45;99098.92;110740;1258;21942;-72
2024/03/29 01:47:53;;;;;;;3.30;2.00;;;;;;;8.99;53.61;99102.05;110394;1258;23483;-71
2024/03/29 01:50:22;;;;;;;4.70;2.20;;;;;;;8.97;53.69;99107.82;111058;1258;21958;-71
2024/03/29 01:52:51;;;;;;;4.80;2.00;;;;;;;8.98;53.83;99112.85;110383;1258;23039;-72
2024/03/29 01:55:20;;;;;;;3.20;2.40;;;;;;;9.00;53.96;99111.65;110502;1258;21958;-72
2024/03/29 01:57:50;;;;;;;3.70;2.60;;;;;;;9.04;53.92;99112.38;110778;1258;21961;-71
2024/03/29 02:00:20;;;;;;;3.70;2.30;;;;;;;9.08;53.96;99112.91;111054;1258;21955;-72
2024/03/29 02:02:49;;;;;;;4.40;2.80;;;;;;;9.12;53.82;99118.71;110363;1258;23110;-72
2024/03/29 02:05:18;;;;;;;4.20;2.50;;;;;;;9.15;53.77;99121.92;111154;1258;23781;-72
2024/03/29 02:07:48;;;;;;;6.00;2.00;;;;;;;9.18;53.76;99127.15;111004;1257;21955;-72
2024/03/29 02:10:19;;;;;;;;;;;;;;;9.19;53.61;99132.52;111030;1258;22010;-71
2024/03/29 02:12:47;;;;;;;5.20;2.60;;;;;;;9.12;53.64;99135.23;110673;1258;23585;-71
2024/03/29 02:15:16;;;;;;;5.10;3.10;;;;;;;9.15;53.57;99136.39;110766;1258;23186;-73
2024/03/29 02:17:45;;;;;;;5.00;3.20;;;;;;;9.19;53.37;99137.23;111040;1258;21959;-71
2024/03/29 02:20:14;;;;;;;6.00;3.50;;;;;;;9.22;53.29;99139.41;110783;1258;22056;-71
2024/03/29 02:23:18;;;;;;;5.10;3.00;;;;;;;9.25;53.19;99144.84;110936;1258;22637;-72
2024/03/29 02:25:46;;;;;;;4.30;2.60;;;;;;;9.27;53.00;99148.55;110970;1258;22044;-71
2024/03/29 02:28:16;;;;;;;3.30;2.30;;;;;;;9.29;52.94;99150.96;110973;1258;22166;-71
2024/03/29 02:30:44;;;;;;;3.90;2.60;;;;;;;9.31;52.91;99155.91;110707;1258;21964;-72
2024/03/29 02:33:13;;;;;;;3.80;2.20;;;;;;;9.32;52.72;99154.09;110984;1258;22170;-71
2024/03/29 02:35:42;;;;;;;6.40;3.10;;;;;;;9.33;52.95;99153.66;110753;1258;23576;-71
2024/03/29 02:38:10;;;;;;;4.00;2.60;;;;;;;9.34;52.87;99154.08;110710;1258;21959;-71
2024/03/29 02:40:40;;;;;;;5.80;2.90;;;;;;;9.32;52.93;99153.14;110766;1258;22023;-72
2024/03/29 02:43:08;;;;;;;6.70;3.00;;;;;;;9.29;52.88;99155.76;110421;1258;23679;-72
2024/03/29 02:45:37;;;;;;;4.20;2.60;;;;;;;9.26;52.89;99159.17;110729;1258;21975;-71
2024/03/29 02:48:06;;;;;;;4.50;2.90;;;;;;;9.20;52.99;99167.90;111006;1258;22072;-73
2024/03/29 02:50:35;;;;;;;5.90;3.80;;;;;;;9.16;53.05;99173.70;110994;1256;22179;-71
2024/03/29 02:53:04;;;;;;;5.70;3.60;;;;;;;9.12;53.04;99172.98;110986;1258;23576;-71
2024/03/29 02:55:32;;;;;;;4.30;3.70;;;;;;;9.08;52.96;99175.05;110999;1258;21961;-71
2024/03/29 02:58:01;;;;;;;4.40;3.10;;;;;;;9.03;53.08;99173.35;111047;1258;23575;-71
2024/03/29 03:00:29;;;;;;;4.60;3.20;;;;;;;8.96;53.00;99172.70;112108;1258;22736;-71
2024/03/29 03:03:02;;;;;;;3.80;2.80;;;;;;;8.90;53.19;99166.84;111890;1258;23608;-72
2024/03/29 03:05:32;;;;;;;5.00;2.60;;;;;;;8.85;53.38;99162.34;111030;1258;23153;-71
2024/03/29 03:11:01;;;;;;;3.30;2.50;;;;;;;8.76;53.55;99173.29;111014;1258;21962;-71
2024/03/29 03:13:30;;;;;;;4.50;2.80;;;;;;;8.72;53.65;99175.52;111009;1256;22061;-71
2024/03/29 03:15:58;;;;;;;4.60;2.70;;;;;;;8.71;53.84;99182.30;110539;1258;21959;-70
2024/03/29 03:18:27;;;;;;;4.20;2.30;;;;;;;8.70;53.83;99184.62;111050;1254;21979;-70
2024/03/29 03:21:00;;;;;;;3.60;2.80;;;;;;;8.69;53.97;99190.31;111004;1258;21973;-71
2024/03/29 03:23:29;;;;;;;6.20;4.30;;;;;;;8.67;53.87;99193.86;110994;1258;23596;-71
2024/03/29 03:26:00;;;;;;;6.50;5.60;;;;;;;8.66;53.92;99198.14;110674;1258;23649;-71
2024/03/29 03:28:29;;;;;;;8.40;6.50;;;;;;;8.64;54.07;99208.83;111000;1258;21963;-71
2024/03/29 03:30:58;;;;;;;7.70;5.10;;;;;;;8.61;54.09;99208.74;111043;1258;23611;-72
2024/03/29 03:33:26;;;;;;;6.30;4.50;;;;;;;8.56;54.14;99205.27;110959;1258;22321;-72
2024/03/29 03:35:55;;;;;;;6.00;4.10;;;;;;;8.50;54.25;99211.04;110977;1258;23802;-71
2024/03/29 03:38:23;;;;;;;6.20;3.70;;;;;;;8.42;54.23;99217.27;110987;1258;21962;-72
2024/03/29 03:40:52;;;;;;;4.20;2.70;;;;;;;8.37;54.51;99224.64;110738;1258;21964;-73
2024/03/29 03:43:20;;;;;;;5.30;3.30;;;;;;;8.33;54.70;99229.02;110731;1258;23649;-73
2024/03/29 03:45:49;;;;;;;5.10;3.60;;;;;;;8.28;54.90;99231.11;110702;1258;22009;-72
2024/03/29 03:48:18;;;;;;;8.10;3.80;;;;;;;8.20;55.42;99232.08;110998;1258;21958;-72
2024/03/29 03:50:46;;;;;;;6.20;4.20;;;;;;;8.15;55.68;99235.52;110759;1258;21966;-72
2024/03/29 03:53:15;;;;;;;6.20;4.40;;;;;;;8.08;55.78;99234.08;110749;1258;21966;-72
2024/03/29 03:55:44;;;;;;;7.80;6.20;;;;;;;8.05;55.93;99233.29;110989;1258;22038;-73
2024/03/29 03:58:12;;;;;;;12.10;8.20;;;;;;;8.00;56.05;99232.28;111014;1258;23576;-72
2024/03/29 04:00:41;;;;;;;9.70;6.40;;;;;;;7.88;56.11;99235.80;111006;1258;23485;-72
2024/03/29 04:03:10;;;;;;;8.30;5.60;;;;;;;7.77;56.50;99231.02;110994;1258;22049;-72
2024/03/29 04:05:39;;;;;;;10.30;5.70;;;;;;;7.67;56.94;99225.69;111045;1258;22136;-72
2024/03/29 04:08:07;;;;;;;9.00;6.10;;;;;;;7.58;57.07;99228.11;111126;1258;21956;-73
2024/03/29 04:10:39;;;;;;;9.40;7.00;;;;;;;7.50;57.45;99230.61;111226;1258;22436;-72
2024/03/29 04:13:08;;;;;;;;;;;;;;;7.42;57.52;99224.38;111104;1258;22433;-71
2024/03/29 04:15:37;;;;;;;8.60;6.30;;;;;;;7.25;57.92;99225.35;112131;1258;21970;-73
2024/03/29 04:18:06;;;;;;;8.40;6.80;;;;;;;7.20;58.03;99226.08;112425;1258;21973;-72
2024/03/29 04:20:35;;;;;;;11.50;8.00;;;;;;;7.15;58.16;99224.82;112234;1258;21975;-72
2024/03/29 04:23:06;;;;;;;14.10;8.50;;;;;;;7.09;59.11;99224.77;111884;1258;21959;-71
2024/03/29 04:25:34;;;;;;;8.80;7.80;;;;;;;7.03;58.82;99230.08;112120;1258;22057;-71
2024/03/29 04:28:04;;;;;;;13.50;8.30;;;;;;;7.00;58.98;99235.03;112089;1258;22200;-70
2024/03/29 04:30:32;;;;;;;12.50;9.20;;;;;;;6.96;59.16;99240.39;111600;1258;23700;-70
2024/03/29 04:33:01;;;;;;;15.70;10.50;;;;;;;6.96;58.92;99246.55;110854;1258;21985;-70
2024/03/29 04:35:30;;;;;;;13.50;11.10;;;;;;;6.94;59.33;99247.56;110736;1258;21969;-69
2024/03/29 04:37:59;;;;;;;10.00;8.90;;;;;;;6.93;59.60;99255.65;110696;1258;21956;-69
2024/03/29 04:40:27;;;;;;;10.90;8.80;;;;;;;6.94;59.54;99258.25;110850;1258;23633;-72
2024/03/29 04:42:56;;;;;;;13.30;8.60;;;;;;;6.95;59.59;99262.00;110862;1258;21969;-71
2024/03/29 04:45:25;;;;;;;11.70;8.30;;;;;;;6.96;59.62;99266.30;110960;1258;21959;-71
2024/03/29 04:47:54;;;;;;;11.20;6.80;;;;;;;6.94;59.95;99268.35;110890;1258;21956;-71
2024/03/29 04:50:23;;;;;;;10.90;9.40;;;;;;;6.92;59.90;99265.35;111078;1258;23432;-71
2024/03/29 04:52:51;;;;;;;15.60;8.60;;;;;;;6.91;60.00;99259.84;111061;1258;21952;-71
2024/03/29 04:55:20;;;;;;;12.10;9.20;;;;;;;6.91;60.03;99256.33;111023;1258;23688;-70
2024/03/29 04:57:48;;;;;;;13.10;9.00;;;;;;;6.92;60.10;99256.59;110427;1258;21997;-70
2024/03/29 05:00:17;;;;;;;11.90;9.30;;;;;;;6.93;60.15;99264.26;110816;1258;21966;-71
2024/03/29 05:02:46;;;;;;;11.70;10.50;;;;;;;6.95;60.25;99266.54;110701;1258;21956;-71
2024/03/29 05:05:15;;;;;;;13.20;10.30;;;;;;;6.98;60.59;99271.59;111102;1258;22737;-72
2024/03/29 05:07:44;;;;;;;25.00;13.70;;;;;;;7.02;60.41;99272.34;110998;1258;21977;-72
2024/03/29 05:10:12;;;;;;;17.80;10.90;;;;;;;7.08;60.55;99275.60;111116;1258;23594;-72
2024/03/29 05:12:41;;;;;;;20.50;14.50;;;;;;;7.16;60.61;99272.20;110944;1258;21987;-71
2024/03/29 05:15:10;;;;;;;22.40;16.60;;;;;;;7.23;60.40;99279.23;110974;1258;21969;-72
2024/03/29 05:17:41;;;;;;;18.20;14.80;;;;;;;7.27;59.99;99287.37;111012;1258;21968;-72
2024/03/29 05:20:10;;;;;;;18.10;13.90;;;;;;;7.25;60.21;99293.06;110979;1258;21978;-71
2024/03/29 05:22:39;;;;;;;15.50;12.40;;;;;;;7.29;60.30;99299.81;111071;1258;23753;-73
2024/03/29 05:25:08;;;;;;;12.20;9.90;;;;;;;7.35;60.31;99298.79;110772;1258;21958;-72
2024/03/29 05:27:37;;;;;;;11.90;9.50;;;;;;;7.39;60.26;99291.17;111023;1258;23046;-73
2024/03/29 05:30:09;;;;;;;12.00;8.00;;;;;;;7.42;60.22;99288.98;111039;1257;21949;-72
2024/03/29 05:32:38;;;;;;;10.30;7.90;;;;;;;7.42;60.45;99293.06;110834;1258;21961;-72
2024/03/29 05:35:08;;;;;;;10.40;6.70;;;;;;;7.43;60.39;99290.20;110837;1258;23034;-72
2024/03/29 05:37:37;;;;;;;7.70;6.40;;;;;;;7.44;60.40;99289.90;111046;1258;21996;-72
2024/03/29 05:40:07;;;;;;;10.00;7.30;;;;;;;7.44;60.30;99297.26;111123;1258;22325;-73
2024/03/29 05:42:37;;;;;;;7.90;6.20;;;;;;;7.47;60.39;99299.14;110681;1258;21965;-72
2024/03/29 05:45:31;;;;;;;7.60;5.30;;;;;;;7.54;60.36;99292.70;111387;1258;22357;-73
2024/03/29 05:47:59;;;;;;;9.70;5.70;;;;;;;7.59;60.32;99296.18;112227;1258;21984;-73
2024/03/29 05:50:28;;;;;;;7.60;5.40;;;;;;;7.67;60.20;99299.42;111316;1258;21957;-73
2024/03/29 05:52:59;;;;;;;9.80;6.80;;;;;;;7.77;60.09;99294.80;111060;1258;23483;-72
2024/03/29 05:55:31;;;;;;;10.00;5.40;;;;;;;7.89;59.95;99295.48;110974;1258;23705;-72
2024/03/29 05:57:59;;;;;;;5.60;4.70;;;;;;;7.98;59.83;99297.10;110779;1258;24051;-72
2024/03/29 06:00:28;;;;;;;8.40;7.20;;;;;;;8.05;59.26;99297.05;110950;1258;22112;-73
2024/03/29 06:02:57;;;;;;;6.10;4.90;;;;;;;8.14;59.23;99293.56;110958;1258;23114;-73
2024/03/29 06:05:26;;;;;;;5.90;5.00;;;;;;;8.24;59.01;99293.50;110983;1258;21976;-73
2024/03/29 06:07:55;;;;;;;8.10;4.60;;;;;;;8.31;58.77;99300.12;110980;1258;23048;-72
2024/03/29 06:10:24;;;;;;;6.30;4.70;;;;;;;8.40;58.40;99296.30;110936;1258;23655;-72
2024/03/29 06:12:53;;;;;;;7.20;5.70;;;;;;;8.54;58.27;99293.18;110763;1258;21955;-73
2024/03/29 06:18:10;;;;;;;7.90;5.90;;;;;;;8.85;57.68;99296.61;110976;1258;23601;-72
2024/03/29 06:20:39;;;;;;;7.30;5.70;;;;;;;8.99;57.27;99295.15;111012;1258;21961;-72
2024/03/29 06:23:08;;;;;;;6.50;5.10;;;;;;;9.17;56.86;99293.02;110980;1258;21945;-72
2024/03/29 06:25:36;;;;;;;7.60;5.70;;;;;;;9.37;56.58;99298.20;110490;1258;22895;-72
2024/03/29 06:28:05;;;;;;;11.20;4.90;;;;;;;9.65;55.95;99304.69;110815;1258;21944;-71
2024/03/29 06:30:34;;;;;;;7.70;5.40;;;;;;;9.97;55.16;99312.77;111011;1258;21961;-69
2024/03/29 06:33:03;;;;;;;9.30;4.70;;;;;;;10.32;54.21;99318.23;110968;1258;23080;-69
2024/03/29 06:35:32;;;;;;;12.50;4.80;;;;;;;10.72;53.83;99322.58;110953;1246;22073;-69
2024/03/29 06:38:02;;;;;;;9.20;4.50;;;;;;;11.07;52.41;99323.71;110964;1258;24231;-69
2024/03/29 06:40:31;;;;;;;6.50;4.00;;;;;;;11.39;51.27;99322.41;110999;1258;21997;-67
2024/03/29 06:43:01;;;;;;;8.20;3.90;;;;;;;11.73;50.55;99320.61;110981;1258;21960;-68
2024/03/29 06:45:29;;;;;;;8.20;4.40;;;;;;;12.13;49.72;99321.19;111029;1252;23017;-70
2024/03/29 06:48:00;;;;;;;7.00;4.20;;;;;;;12.53;48.66;99326.20;110961;1258;22480;-68
2024/03/29 06:50:28;;;;;;;8.10;3.80;;;;;;;12.88;47.62;99318.63;111032;1258;21999;-68
2024/03/29 06:52:57;;;;;;;5.80;3.20;;;;;;;13.22;46.92;99310.73;110983;1258;22032;-70
2024/03/29 06:55:26;;;;;;;5.80;4.40;;;;;;;13.60;45.95;99299.13;111017;1258;21985;-69
2024/03/29 06:57:54;;;;;;;11.70;5.40;;;;;;;14.00;45.29;99294.05;110965;1258;21994;-69
2024/03/29 07:00:23;;;;;;;7.60;3.90;;;;;;;14.49;44.48;99297.52;110967;1258;21970;-69
2024/03/29 07:02:52;;;;;;;4.60;3.60;;;;;;;14.94;43.48;99303.88;111029;1258;21961;-69
2024/03/29 07:05:20;;;;;;;5.90;3.10;;;;;;;15.26;42.00;99305.63;110968;1258;22755;-70
2024/03/29 07:07:49;;;;;;;5.50;3.20;;;;;;;15.40;41.00;99307.91;111014;1258;24602;-69
2024/03/29 07:10:17;;;;;;;6.60;3.20;;;;;;;15.47;41.12;99311.70;110982;1258;23627;-70
2024/03/29 07:12:46;;;;;;;4.60;3.30;;;;;;;15.49;41.29;99324.02;111046;1258;23808;-70
2024/03/29 07:15:15;;;;;;;5.00;3.80;;;;;;;15.41;41.10;99327.91;111007;1258;21961;-69
2024/03/29 07:17:44;;;;;;;5.30;3.80;;;;;;;15.35;40.51;99330.12;111005;1258;21965;-69
2024/03/29 07:20:12;;;;;;;7.40;3.90;;;;;;;15.57;41.00;99329.06;111005;1257;23706;-69
2024/03/29 07:22:41;;;;;;;5.60;3.40;;;;;;;15.96;40.10;99335.04;111048;1258;21978;-69
2024/03/29 07:25:10;;;;;;;5.70;4.00;;;;;;;16.39;39.51;99340.76;111042;1258;21958;-69
2024/03/29 07:27:38;;;;;;;6.90;3.80;;;;;;;16.75;38.27;99338.59;111011;1258;23687;-68
2024/03/29 07:30:08;;;;;;;4.50;2.90;;;;;;;16.99;37.26;99335.89;111032;1258;21977;-70
2024/03/29 07:32:37;;;;;;;3.20;2.40;;;;;;;17.23;37.18;99337.63;111013;1258;22408;-69
2024/03/29 07:35:06;;;;;;;6.30;2.60;;;;;;;17.44;36.18;99334.59;111061;1258;21956;-70
2024/03/29 07:37:35;;;;;;;4.50;2.40;;;;;;;17.73;35.88;99336.86;110999;1258;21956;-69
2024/03/29 07:40:05;;;;;;;5.60;2.60;;;;;;;18.06;35.02;99334.88;111013;1258;23748;-68
2024/03/29 07:42:38;;;;;;;11.60;2.50;;;;;;;18.50;34.55;99337.56;111009;1258;23595;-71
2024/03/29 07:45:07;;;;;;;3.70;2.30;;;;;;;18.94;33.70;99340.27;110974;1258;23005;-70
2024/03/29 07:47:36;;;;;;;11.70;3.00;;;;;;;18.85;32.70;99340.47;111009;1258;23679;-68
2024/03/29 07:50:06;;;;;;;15.60;2.90;;;;;;;18.78;33.30;99340.09;110942;1258;23872;-68
2024/03/29 07:52:35;;;;;;;5.50;2.50;;;;;;;18.95;32.84;99349.33;110692;1258;21956;-69
2024/03/29 07:55:04;;;;;;;6.00;2.80;;;;;;;19.05;32.31;99350.73;111003;1258;22041;-69
2024/03/29 07:57:32;;;;;;;6.00;2.90;;;;;;;19.28;32.05;99346.86;111052;1258;21994;-68
2024/03/29 08:00:01;;;;;;;5.70;2.30;;;;;;;19.53;31.25;99348.79;111015;1258;23471;-69
2024/03/29 08:02:33;;;;;;;7.10;2.70;;;;;;;19.59;31.05;99348.61;111047;1258;23699;-70
2024/03/29 08:05:02;;;;;;;10.90;2.80;;;;;;;19.55;30.95;99345.81;111017;1258;22426;-71
2024/03/29 08:07:34;;;;;;;7.60;3.20;;;;;;;19.66;31.58;99344.63;111054;1258;22761;-69
2024/03/29 08:10:03;;;;;;;3.90;2.00;;;;;;;19.95;30.77;99348.79;110862;1258;200169;-69
2024/03/29 08:12:35;;;;;;;7.20;1.90;;;;;;;20.01;30.16;99353.67;111005;1248;21980;-69
2024/03/29 08:15:05;;;;;;;5.20;1.50;;;;;;;20.18;29.94;99351.23;110981;1258;21970;-70
2024/03/29 08:17:34;;;;;;;2.70;1.80;;;;;;;20.46;28.96;99353.41;111054;1258;21976;-69
2024/03/29 08:20:04;;;;;;;5.20;3.40;;;;;;;20.58;28.94;99356.27;111019;1258;24309;-69
2024/03/29 08:22:33;;;;;;;5.20;2.60;;;;;;;20.84;28.31;99358.34;111026;1258;21958;-69
2024/03/29 08:25:02;;;;;;;4.20;2.00;;;;;;;21.05;28.22;99361.33;111042;1258;23172;-69
2024/03/29 08:27:30;;;;;;;5.80;2.20;;;;;;;21.04;27.29;99365.79;111004;1258;24140;-69
2024/03/29 08:29:59;;;;;;;4.30;2.20;;;;;;;21.13;27.91;99373.35;111049;1258;24106;-69
2024/03/29 08:32:28;;;;;;;6.00;2.10;;;;;;;21.46;27.61;99379.78;111368;1258;22061;-69
2024/03/29 08:34:57;;;;;;;6.20;2.40;;;;;;;21.57;27.21;99383.39;111404;1258;23595;-69
2024/03/29 08:37:26;;;;;;;4.50;1.80;;;;;;;21.72;27.24;99391.39;110996;1258;22194;-70
2024/03/29 08:39:55;;;;;;;12.90;2.50;;;;;;;21.97;26.72;99400.51;111046;1258;21966;-68
2024/03/29 08:42:24;;;;;;;6.50;2.80;;;;;;;22.01;26.02;99402.23;111085;1258;22023;-66
2024/03/29 08:44:53;;;;;;;3.20;1.60;;;;;;;21.67;26.14;99401.80;110678;1258;21959;-66
2024/03/29 08:47:22;;;;;;;8.90;1.70;;;;;;;21.31;26.10;99400.88;110737;1258;21962;-66
2024/03/29 08:49:50;;;;;;;6.20;2.50;;;;;;;21.10;26.64;99388.21;110794;1258;21960;-70
2024/03/29 08:52:19;;;;;;;4.60;2.00;;;;;;;21.40;26.85;99382.90;111059;1258;21958;-66
2024/03/29 08:54:48;;;;;;;8.20;2.30;;;;;;;21.70;26.30;99379.70;110689;1254;23059;-65
2024/03/29 08:57:17;;;;;;;7.20;1.70;;;;;;;21.64;25.45;99392.65;110679;1258;21969;-66
2024/03/29 08:59:46;;;;;;;6.20;2.40;;;;;;;21.22;25.13;99401.90;110468;1258;21996;-66
2024/03/29 09:02:15;;;;;;;5.70;2.00;;;;;;;20.96;25.51;99402.88;110690;1257;21965;-67
2024/03/29 09:04:43;;;;;;;4.50;2.00;;;;;;;21.06;26.00;99401.23;110772;1258;21956;-66
2024/03/29 09:07:12;;;;;;;5.40;1.60;;;;;;;21.16;25.66;99400.46;110511;1258;22420;-65
2024/03/29 09:09:42;;;;;;;3.90;2.00;;;;;;;21.22;25.71;99405.29;110729;1258;21963;-67
2024/03/29 09:12:10;;;;;;;4.80;1.80;;;;;;;20.91;25.91;99415.14;111038;1257;21961;-67
2024/03/29 09:14:39;;;;;;;5.10;1.70;;;;;;;20.50;26.54;99424.17;110871;1258;22093;-67
2024/03/29 09:17:11;;;;;;;3.00;1.20;;;;;;;20.39;27.13;99422.48;111115;1258;21971;-67
2024/03/29 09:19:40;;;;;;;4.10;2.20;;;;;;;20.31;27.07;99412.69;110816;1247;21955;-66
2024/03/29 09:22:09;;;;;;;7.70;2.60;;;;;;;20.23;27.32;99399.48;110811;1258;21963;-69
2024/03/29 09:24:39;;;;;;;4.00;2.30;;;;;;;20.32;27.09;99389.48;110996;1258;22012;-68
2024/03/29 09:27:08;;;;;;;5.20;2.60;;;;;;;20.62;27.08;99390.67;111012;1258;21992;-69
2024/03/29 09:29:37;;;;;;;6.40;3.30;;;;;;;20.94;26.64;99392.29;110979;1258;21969;-69
2024/03/29 09:32:06;;;;;;;5.00;2.10;;;;;;;21.21;26.28;99397.93;110738;1258;22003;-67
2024/03/29 09:34:38;;;;;;;20.30;5.90;;;;;;;21.32;25.56;99408.16;111009;1258;23024;-67
2024/03/29 09:37:07;;;;;;;16.40;7.90;;;;;;;21.11;25.19;99415.19;110997;1258;21958;-68
2024/03/29 09:39:36;;;;;;;8.10;4.10;;;;;;;21.05;25.35;99414.54;110986;1258;23706;-68
2024/03/29 09:42:06;;;;;;;8.70;3.40;;;;;;;21.04;25.37;99411.18;111035;1258;22005;-69
2024/03/29 09:44:36;;;;;;;5.10;3.80;;;;;;;21.10;25.78;99406.84;110745;1258;23589;-69
2024/03/29 09:47:06;;;;;;;6.10;4.30;;;;;;;21.13;25.49;99404.37;110979;1254;23791;-68
2024/03/29 09:49:35;;;;;;;6.50;1.60;;;;;;;21.25;25.40;99404.71;110210;1265;23694;-69
2024/03/29 09:52:08;;;;;;;3.50;1.50;;;;;;;21.37;24.85;99409.18;110215;1265;23684;-68
2024/03/29 09:54:36;;;;;;;6.50;2.40;;;;;;;21.23;24.28;99408.56;110303;1265;21970;-71
2024/03/29 09:57:05;;;;;;;4.70;1.90;;;;;;;21.24;24.54;99413.04;110274;1263;23607;-68
2024/03/29 09:59:34;;;;;;;3.60;1.80;;;;;;;21.38;24.37;99416.63;110374;1265;21992;-69
2024/03/29 10:02:15;;;;;;;5.00;2.40;;;;;;;21.46;24.52;99419.15;110306;1265;23031;-71
2024/03/29 10:04:48;;;;;;;3.60;1.30;;;;;;;21.34;24.19;99411.11;110273;1265;22360;-71
2024/03/29 10:07:18;;;;;;;3.20;1.50;;;;;;;21.23;23.90;99408.23;110405;1258;23483;-72
2024/03/29 10:09:52;;;;;;;2.90;1.20;;;;;;;21.28;24.12;99407.21;110720;1258;24445;-71
2024/03/29 10:12:21;;;;;;;4.40;1.40;;;;;;;21.45;24.05;99408.21;111008;1246;21975;-68
2024/03/29 10:14:52;;;;;;;5.50;1.50;;;;;;;21.41;23.40;99401.06;110978;1258;21975;-69
2024/03/29 10:17:21;;;;;;;3.50;1.20;;;;;;;21.08;23.61;99398.48;111015;1258;22082;-69
2024/03/29 10:19:50;;;;;;;5.10;1.50;;;;;;;20.93;24.21;99394.52;111058;1258;22009;-68
2024/03/29 10:22:18;;;;;;;3.90;1.50;;;;;;;21.12;24.37;99393.20;110987;1258;22758;-67
2024/03/29 10:24:47;;;;;;;8.30;1.40;;;;;;;21.19;23.36;99396.21;110996;1258;22017;-69
2024/03/29 10:27:16;;;;;;;5.10;1.50;;;;;;;21.24;22.89;99391.95;111065;1258;21972;-68
2024/03/29 10:29:44;;;;;;;4.40;1.20;;;;;;;21.24;22.69;99379.23;111006;1258;22736;-69
2024/03/29 10:32:17;;;;;;;6.70;1.90;;;;;;;21.07;22.84;99379.34;111019;1258;22013;-69
2024/03/29 10:34:49;;;;;;;5.40;1.30;;;;;;;20.81;22.99;99379.62;110696;1258;21962;-70
2024/03/29 10:37:26;;;;;;;5.20;1.00;;;;;;;20.89;23.60;99382.39;110739;1258;22051;-69
2024/03/29 10:39:58;;;;;;;3.50;1.90;;;;;;;21.04;23.31;99377.27;111018;1258;23589;-68
2024/03/29 10:42:26;;;;;;;;;;;;;;;21.14;23.29;99373.90;111008;1258;21950;-70
2024/03/29 10:44:57;;;;;;;4.70;1.50;;;;;;;21.10;23.24;99367.14;111038;1258;21959;-68
2024/03/29 10:47:26;;;;;;;7.10;2.00;;;;;;;21.13;23.16;99362.41;110966;1258;21985;-68
2024/03/29 10:49:58;;;;;;;2.90;1.50;;;;;;;21.27;23.15;99369.01;110672;1258;22031;-68
2024/03/29 10:52:27;;;;;;;5.00;1.40;;;;;;;21.24;22.69;99373.40;110722;1258;21965;-68
2024/03/29 10:54:56;;;;;;;7.80;1.80;;;;;;;21.26;22.60;99378.60;110964;1258;22059;-69
2024/03/29 10:57:27;;;;;;;5.70;1.70;;;;;;;21.42;22.60;99381.91;111022;1258;22034;-68
2024/03/29 11:00:18;;;;;;;4.20;1.80;;;;;;;21.61;22.45;99372.23;111061;1258;22925;-68
2024/03/29 11:03:01;;;;;;;6.20;1.70;;;;;;;21.82;22.43;99356.33;110733;1258;21965;-70
2024/03/29 11:05:33;;;;;;;3.90;1.60;;;;;;;21.77;22.10;99347.01;111013;1258;21959;-69
2024/03/29 11:08:04;;;;;;;2.90;1.40;;;;;;;21.32;22.42;99347.58;110981;1258;22056;-69
2024/03/29 11:10:45;;;;;;;10.50;1.80;;;;;;;20.95;22.86;99348.65;110755;1258;22749;-67
2024/03/29 11:13:38;;;;;;;9.50;2.50;;;;;;;20.72;22.62;99348.89;111209;1258;23643;-69
2024/03/29 11:16:08;;;;;;;4.70;1.90;;;;;;;20.49;23.07;99347.37;110986;1258;23669;-68
2024/03/29 11:18:38;;;;;;;7.30;2.00;;;;;;;20.21;23.60;99339.52;111007;1258;21967;-69
2024/03/29 11:21:12;;;;;;;4.30;1.70;;;;;;;19.86;23.68;99332.84;111153;1258;21959;-70
2024/03/29 11:23:40;;;;;;;4.10;1.10;;;;;;;19.44;24.02;99324.18;111013;1258;23585;-69
2024/03/29 11:26:09;;;;;;;6.60;1.30;;;;;;;19.12;24.37;99322.62;110954;1258;22262;-70
2024/03/29 11:28:40;;;;;;;2.30;1.00;;;;;;;18.80;24.47;99315.77;110953;1252;23064;-69
2024/03/29 11:31:09;;;;;;;;;;;;;;;18.55;24.89;99309.42;110966;1258;21943;-68
2024/03/29 11:33:48;;;;;;;4.40;1.60;;;;;;;18.14;25.38;99316.79;111018;1258;21961;-69
2024/03/29 11:36:28;;;;;;;7.00;1.70;;;;;;;17.95;25.86;99320.16;110976;1258;21955;-68
2024/03/29 11:38:58;;;;;;;6.00;1.70;;;;;;;17.92;26.25;99323.23;111005;1258;22763;-70
2024/03/29 11:41:29;;;;;;;8.30;2.10;;;;;;;17.91;26.50;99327.02;110978;1252;22934;-69
2024/03/29 11:43:58;;;;;;;5.30;3.10;;;;;;;18.00;26.54;99324.53;110967;1258;21975;-69
2024/03/29 11:46:27;;;;;;;5.00;1.60;;;;;;;18.06;26.08;99329.89;110944;1258;23000;-69